sensor_id;sensor_type;location;lat;lon;timestamp;pressure;altitude;pressure_sealevel;temperature;humidity
11339;BME280;5724;42.684;23.252;2022-10-17T00:01:25;95636.44;;;7.52;79.02
11339;BME280;5724;42.684;23.252;2022-10-17T00:03:50;95634.16;;;7.45;79.54
11339;BME280;5724;42.684;23.252;2022-10-17T00:06:16;95636.25;;;7.49;79.53
11339;BME280;5724;42.684;23.252;2022-10-17T00:08:43;95630.16;;;7.29;80.41
11339;BME280;5724;42.684;23.252;2022-10-17T00:11:16;95636.53;;;7.25;80.81
11339;BME280;5724;42.684;23.252;2022-10-17T00:13:43;95628.78;;;7.18;81.02
11339;BME280;5724;42.684;23.252;2022-10-17T00:16:09;95630.53;;;7.00;82.42
11339;BME280;5724;42.684;23.252;2022-10-17T00:18:34;95634.28;;;6.91;82.80
11339;BME280;5724;42.684;23.252;2022-10-17T00:21:00;95632.34;;;6.91;82.42
11339;BME280;5724;42.684;23.252;2022-10-17T00:23:25;95632.44;;;7.00;82.35
11339;BME280;5724;42.684;23.252;2022-10-17T00:26:02;95636.78;;;7.01;82.64
11339;BME280;5724;42.684;23.252;2022-10-17T00:28:28;95636.19;;;6.90;83.08
11339;BME280;5724;42.684;23.252;2022-10-17T00:30:58;95636.38;;;6.94;83.14
11339;BME280;5724;42.684;23.252;2022-10-17T00:33:24;95643.72;;;6.93;83.20
11339;BME280;5724;42.684;23.252;2022-10-17T00:35:50;95644.31;;;7.04;82.39
11339;BME280;5724;42.684;23.252;2022-10-17T00:38:15;95639.81;;;6.85;83.34
11339;BME280;5724;42.684;23.252;2022-10-17T00:40:41;95639.91;;;6.80;84.03
11339;BME280;5724;42.684;23.252;2022-10-17T00:43:16;95642.94;;;6.79;84.02
11339;BME280;5724;42.684;23.252;2022-10-17T00:45:42;95653.31;;;6.77;83.82
11339;BME280;5724;42.684;23.252;2022-10-17T00:48:09;95650.59;;;6.77;83.84
11339;BME280;5724;42.684;23.252;2022-10-17T00:50:37;95649.38;;;6.69;85.04
11339;BME280;5724;42.684;23.252;2022-10-17T00:53:04;95643.94;;;6.69;84.89
11339;BME280;5724;42.684;23.252;2022-10-17T00:55:32;95639.31;;;6.70;84.63
11339;BME280;5724;42.684;23.252;2022-10-17T00:58:02;95643.34;;;6.58;84.87
11339;BME280;5724;42.684;23.252;2022-10-17T01:00:28;95640.94;;;6.57;85.28
11339;BME280;5724;42.684;23.252;2022-10-17T01:02:54;95644.72;;;6.56;85.27
11339;BME280;5724;42.684;23.252;2022-10-17T01:05:20;95648.97;;;6.62;84.67
11339;BME280;5724;42.684;23.252;2022-10-17T01:07:48;95646.25;;;6.62;84.95
11339;BME280;5724;42.684;23.252;2022-10-17T01:10:15;95645.13;;;6.63;85.13
11339;BME280;5724;42.684;23.252;2022-10-17T01:25:54;95644.25;;;6.08;87.98
11339;BME280;5724;42.684;23.252;2022-10-17T01:31:16;95639.63;;;5.94;88.46
11339;BME280;5724;42.684;23.252;2022-10-17T01:33:54;95641.22;;;5.95;87.91
11339;BME280;5724;42.684;23.252;2022-10-17T01:36:29;95646.06;;;5.98;87.59
11339;BME280;5724;42.684;23.252;2022-10-17T01:42:12;95643.38;;;5.80;89.07
11339;BME280;5724;42.684;23.252;2022-10-17T01:45:05;95648.88;;;5.74;89.28
11339;BME280;5724;42.684;23.252;2022-10-17T01:47:32;95652.34;;;5.61;89.42
11339;BME280;5724;42.684;23.252;2022-10-17T01:50:03;95646.03;;;5.47;90.80
11339;BME280;5724;42.684;23.252;2022-10-17T01:52:51;95655.06;;;5.42;91.23
11339;BME280;5724;42.684;23.252;2022-10-17T01:55:24;95659.69;;;5.42;91.18
11339;BME280;5724;42.684;23.252;2022-10-17T01:58:00;95659.75;;;5.37;91.92
11339;BME280;5724;42.684;23.252;2022-10-17T02:00:28;95655.63;;;5.39;92.69
11339;BME280;5724;42.684;23.252;2022-10-17T02:03:00;95664.97;;;5.33;91.87
11339;BME280;5724;42.684;23.252;2022-10-17T02:05:31;95665.53;;;5.30;93.17
11339;BME280;5724;42.684;23.252;2022-10-17T02:07:58;95655.56;;;5.26;93.35
11339;BME280;5724;42.684;23.252;2022-10-17T02:15:55;95661.28;;;5.24;94.43
11339;BME280;5724;42.684;23.252;2022-10-17T02:20:59;95669.28;;;5.34;94.37
11339;BME280;5724;42.684;23.252;2022-10-17T02:28:37;95665.41;;;5.22;94.04
11339;BME280;5724;42.684;23.252;2022-10-17T02:31:13;95668.66;;;5.18;93.47
11339;BME280;5724;42.684;23.252;2022-10-17T02:33:51;95680.41;;;5.14;93.62
11339;BME280;5724;42.684;23.252;2022-10-17T02:36:22;95680.44;;;5.09;94.28
11339;BME280;5724;42.684;23.252;2022-10-17T02:38:50;95689.97;;;5.06;95.11
11339;BME280;5724;42.684;23.252;2022-10-17T02:41:18;95684.09;;;4.99;94.48
11339;BME280;5724;42.684;23.252;2022-10-17T02:43:46;95681.97;;;4.96;94.55
11339;BME280;5724;42.684;23.252;2022-10-17T02:46:14;95687.91;;;4.98;94.72
11339;BME280;5724;42.684;23.252;2022-10-17T02:48:56;95689.47;;;5.04;95.07
11339;BME280;5724;42.684;23.252;2022-10-17T02:51:29;95699.09;;;4.92;95.01
11339;BME280;5724;42.684;23.252;2022-10-17T02:54:32;95695.06;;;4.89;94.88
11339;BME280;5724;42.684;23.252;2022-10-17T02:57:07;95688.84;;;4.88;95.10
11339;BME280;5724;42.684;23.252;2022-10-17T02:59:35;95698.28;;;4.91;95.33
11339;BME280;5724;42.684;23.252;2022-10-17T03:02:05;95699.84;;;4.97;94.82
11339;BME280;5724;42.684;23.252;2022-10-17T03:04:32;95695.81;;;4.95;94.27
11339;BME280;5724;42.684;23.252;2022-10-17T03:06:57;95705.53;;;4.96;94.34
11339;BME280;5724;42.684;23.252;2022-10-17T03:09:23;95709.69;;;5.12;93.63
11339;BME280;5724;42.684;23.252;2022-10-17T03:11:48;95707.63;;;5.04;93.61
11339;BME280;5724;42.684;23.252;2022-10-17T03:14:13;95706.53;;;5.05;93.19
11339;BME280;5724;42.684;23.252;2022-10-17T03:16:39;95704.91;;;5.04;93.44
11339;BME280;5724;42.684;23.252;2022-10-17T03:19:04;95709.69;;;5.12;92.69
11339;BME280;5724;42.684;23.252;2022-10-17T03:21:30;95710.03;;;5.05;93.29
11339;BME280;5724;42.684;23.252;2022-10-17T03:23:55;95704.53;;;5.10;92.65
11339;BME280;5724;42.684;23.252;2022-10-17T03:26:21;95709.56;;;5.22;92.81
11339;BME280;5724;42.684;23.252;2022-10-17T03:28:46;95709.56;;;5.22;91.79
11339;BME280;5724;42.684;23.252;2022-10-17T03:31:14;95712.31;;;5.17;92.13
11339;BME280;5724;42.684;23.252;2022-10-17T03:33:40;95711.97;;;5.24;91.83
11339;BME280;5724;42.684;23.252;2022-10-17T03:36:10;95715.19;;;5.26;92.15
11339;BME280;5724;42.684;23.252;2022-10-17T03:38:37;95714.91;;;5.27;91.99
11339;BME280;5724;42.684;23.252;2022-10-17T03:41:03;95712.25;;;5.22;91.98
11339;BME280;5724;42.684;23.252;2022-10-17T03:43:29;95712.66;;;5.10;91.96
11339;BME280;5724;42.684;23.252;2022-10-17T03:45:56;95720.56;;;5.07;92.31
11339;BME280;5724;42.684;23.252;2022-10-17T03:48:22;95721.84;;;5.14;91.80
11339;BME280;5724;42.684;23.252;2022-10-17T03:50:47;95702.84;;;4.96;91.57
11339;BME280;5724;42.684;23.252;2022-10-17T03:53:13;95719.00;;;5.01;92.46
11339;BME280;5724;42.684;23.252;2022-10-17T03:55:38;95725.00;;;4.98;92.72
11339;BME280;5724;42.684;23.252;2022-10-17T03:58:04;95727.50;;;4.94;92.97
11339;BME280;5724;42.684;23.252;2022-10-17T04:00:29;95729.25;;;4.85;92.93
11339;BME280;5724;42.684;23.252;2022-10-17T04:02:56;95729.16;;;4.90;92.98
11339;BME280;5724;42.684;23.252;2022-10-17T04:05:22;95726.53;;;4.85;93.20
11339;BME280;5724;42.684;23.252;2022-10-17T04:07:47;95728.06;;;4.91;92.94
11339;BME280;5724;42.684;23.252;2022-10-17T04:10:13;95732.97;;;4.89;93.10
11339;BME280;5724;42.684;23.252;2022-10-17T04:12:38;95734.25;;;4.97;92.26
11339;BME280;5724;42.684;23.252;2022-10-17T04:15:04;95734.47;;;5.00;92.64
11339;BME280;5724;42.684;23.252;2022-10-17T04:17:30;95741.06;;;4.94;91.90
11339;BME280;5724;42.684;23.252;2022-10-17T04:19:56;95738.38;;;4.89;93.00
11339;BME280;5724;42.684;23.252;2022-10-17T04:22:21;95730.03;;;4.85;92.32
11339;BME280;5724;42.684;23.252;2022-10-17T04:24:46;95734.16;;;4.83;91.91
11339;BME280;5724;42.684;23.252;2022-10-17T04:27:12;95741.38;;;4.87;92.34
11339;BME280;5724;42.684;23.252;2022-10-17T04:29:37;95745.88;;;4.97;91.88
11339;BME280;5724;42.684;23.252;2022-10-17T04:32:03;95746.41;;;4.99;91.59
11339;BME280;5724;42.684;23.252;2022-10-17T04:34:28;95737.81;;;4.92;91.48
11339;BME280;5724;42.684;23.252;2022-10-17T04:36:54;95734.38;;;4.86;90.96
11339;BME280;5724;42.684;23.252;2022-10-17T04:39:19;95749.34;;;4.79;91.76
11339;BME280;5724;42.684;23.252;2022-10-17T04:41:44;95738.50;;;4.79;91.16
11339;BME280;5724;42.684;23.252;2022-10-17T04:44:10;95750.94;;;4.80;91.52
11339;BME280;5724;42.684;23.252;2022-10-17T04:46:35;95748.34;;;4.70;91.98
11339;BME280;5724;42.684;23.252;2022-10-17T04:49:01;95738.69;;;4.64;92.08
11339;BME280;5724;42.684;23.252;2022-10-17T04:51:27;95744.53;;;4.71;92.32
11339;BME280;5724;42.684;23.252;2022-10-17T04:53:54;95747.84;;;4.68;92.03
11339;BME280;5724;42.684;23.252;2022-10-17T04:56:24;95750.34;;;4.59;92.20
11339;BME280;5724;42.684;23.252;2022-10-17T04:58:50;95749.06;;;4.51;92.37
11339;BME280;5724;42.684;23.252;2022-10-17T05:01:18;95756.16;;;4.47;93.18
11339;BME280;5724;42.684;23.252;2022-10-17T05:03:44;95755.88;;;4.20;94.91
11339;BME280;5724;42.684;23.252;2022-10-17T05:06:12;95759.50;;;4.34;95.12
11339;BME280;5724;42.684;23.252;2022-10-17T05:08:38;95761.66;;;4.37;94.66
11339;BME280;5724;42.684;23.252;2022-10-17T05:11:05;95758.38;;;4.40;94.54
11339;BME280;5724;42.684;23.252;2022-10-17T05:13:31;95761.56;;;4.47;94.23
11339;BME280;5724;42.684;23.252;2022-10-17T05:16:00;95766.88;;;4.57;93.76
11339;BME280;5724;42.684;23.252;2022-10-17T05:18:27;95765.41;;;4.70;93.92
11339;BME280;5724;42.684;23.252;2022-10-17T05:20:52;95767.78;;;4.77;93.16
11339;BME280;5724;42.684;23.252;2022-10-17T05:23:17;95780.06;;;4.93;92.90
11339;BME280;5724;42.684;23.252;2022-10-17T05:25:43;95776.06;;;5.09;91.89
11339;BME280;5724;42.684;23.252;2022-10-17T05:28:08;95780.88;;;4.94;91.16
11339;BME280;5724;42.684;23.252;2022-10-17T05:30:34;95779.88;;;4.84;91.64
11339;BME280;5724;42.684;23.252;2022-10-17T05:33:00;95780.56;;;4.95;92.45
11339;BME280;5724;42.684;23.252;2022-10-17T05:35:26;95794.88;;;5.25;91.82
11339;BME280;5724;42.684;23.252;2022-10-17T05:37:51;95797.06;;;5.23;90.99
11339;BME280;5724;42.684;23.252;2022-10-17T05:40:17;95796.34;;;5.36;90.86
11339;BME280;5724;42.684;23.252;2022-10-17T05:42:46;95795.63;;;5.49;90.47
11339;BME280;5724;42.684;23.252;2022-10-17T05:45:13;95792.53;;;5.61;90.23
11339;BME280;5724;42.684;23.252;2022-10-17T05:47:38;95805.13;;;5.70;90.02
11339;BME280;5724;42.684;23.252;2022-10-17T05:50:04;95806.91;;;5.80;89.11
11339;BME280;5724;42.684;23.252;2022-10-17T05:52:30;95814.63;;;5.92;88.82
11339;BME280;5724;42.684;23.252;2022-10-17T05:54:55;95811.56;;;5.98;86.73
11339;BME280;5724;42.684;23.252;2022-10-17T05:57:24;95821.81;;;6.20;86.60
11339;BME280;5724;42.684;23.252;2022-10-17T05:59:49;95820.56;;;6.31;85.90
11339;BME280;5724;42.684;23.252;2022-10-17T06:02:15;95812.34;;;6.18;85.05
11339;BME280;5724;42.684;23.252;2022-10-17T06:04:40;95822.66;;;6.35;84.53
11339;BME280;5724;42.684;23.252;2022-10-17T06:07:09;95819.13;;;6.53;84.35
11339;BME280;5724;42.684;23.252;2022-10-17T06:09:35;95832.44;;;6.68;83.38
11339;BME280;5724;42.684;23.252;2022-10-17T06:12:00;95828.31;;;6.57;84.22
11339;BME280;5724;42.684;23.252;2022-10-17T06:14:26;95838.09;;;6.72;83.67
11339;BME280;5724;42.684;23.252;2022-10-17T06:16:51;95830.00;;;6.85;83.86
11339;BME280;5724;42.684;23.252;2022-10-17T06:19:16;95830.00;;;6.99;82.94
11339;BME280;5724;42.684;23.252;2022-10-17T06:21:42;95833.94;;;7.07;82.94
11339;BME280;5724;42.684;23.252;2022-10-17T06:24:07;95839.09;;;7.22;82.46
11339;BME280;5724;42.684;23.252;2022-10-17T06:26:33;95840.59;;;7.28;81.69
11339;BME280;5724;42.684;23.252;2022-10-17T06:28:58;95840.91;;;7.40;81.86
11339;BME280;5724;42.684;23.252;2022-10-17T06:31:24;95846.34;;;7.68;80.79
11339;BME280;5724;42.684;23.252;2022-10-17T06:33:49;95849.13;;;7.90;80.00
11339;BME280;5724;42.684;23.252;2022-10-17T06:36:15;95845.72;;;7.98;79.05
11339;BME280;5724;42.684;23.252;2022-10-17T06:38:40;95849.34;;;7.94;78.69
11339;BME280;5724;42.684;23.252;2022-10-17T06:41:11;95858.19;;;7.99;78.47
11339;BME280;5724;42.684;23.252;2022-10-17T06:43:38;95851.78;;;7.95;78.09
11339;BME280;5724;42.684;23.252;2022-10-17T06:46:05;95858.28;;;8.22;77.76
11339;BME280;5724;42.684;23.252;2022-10-17T06:48:31;95860.78;;;8.32;77.56
11339;BME280;5724;42.684;23.252;2022-10-17T06:50:58;95858.22;;;8.49;77.21
11339;BME280;5724;42.684;23.252;2022-10-17T06:53:29;95855.25;;;8.59;76.95
11339;BME280;5724;42.684;23.252;2022-10-17T06:55:54;95865.03;;;8.83;77.10
11339;BME280;5724;42.684;23.252;2022-10-17T06:58:25;95867.34;;;8.89;76.14
11339;BME280;5724;42.684;23.252;2022-10-17T07:00:51;95856.06;;;8.82;75.63
11339;BME280;5724;42.684;23.252;2022-10-17T07:03:16;95859.34;;;8.93;75.38
11339;BME280;5724;42.684;23.252;2022-10-17T07:05:42;95864.84;;;9.02;75.12
11339;BME280;5724;42.684;23.252;2022-10-17T07:08:07;95861.91;;;9.21;73.50
11339;BME280;5724;42.684;23.252;2022-10-17T07:10:32;95859.88;;;9.35;73.33
11339;BME280;5724;42.684;23.252;2022-10-17T07:13:02;95860.44;;;9.54;72.34
11339;BME280;5724;42.684;23.252;2022-10-17T07:15:28;95861.97;;;9.69;71.21
11339;BME280;5724;42.684;23.252;2022-10-17T07:17:53;95863.06;;;9.59;71.29
11339;BME280;5724;42.684;23.252;2022-10-17T07:20:19;95861.31;;;9.72;70.85
11339;BME280;5724;42.684;23.252;2022-10-17T07:22:44;95850.88;;;9.65;71.06
11339;BME280;5724;42.684;23.252;2022-10-17T07:25:10;95862.34;;;9.45;71.49
11339;BME280;5724;42.684;23.252;2022-10-17T07:27:35;95866.97;;;9.44;72.56
11339;BME280;5724;42.684;23.252;2022-10-17T07:30:00;95855.00;;;9.54;71.36
11339;BME280;5724;42.684;23.252;2022-10-17T07:32:26;95865.06;;;9.85;71.15
11339;BME280;5724;42.684;23.252;2022-10-17T07:34:51;95871.78;;;10.27;72.74
11339;BME280;5724;42.684;23.252;2022-10-17T07:37:17;95875.97;;;10.50;69.33
11339;BME280;5724;42.684;23.252;2022-10-17T07:39:42;95879.69;;;10.54;67.99
11339;BME280;5724;42.684;23.252;2022-10-17T07:42:07;95877.56;;;10.51;67.85
11339;BME280;5724;42.684;23.252;2022-10-17T07:44:33;95879.38;;;10.73;67.84
11339;BME280;5724;42.684;23.252;2022-10-17T07:46:59;95871.16;;;10.91;67.47
11339;BME280;5724;42.684;23.252;2022-10-17T07:49:25;95886.78;;;10.73;66.29
11339;BME280;5724;42.684;23.252;2022-10-17T07:51:50;95885.94;;;10.98;66.20
11339;BME280;5724;42.684;23.252;2022-10-17T07:54:15;95885.44;;;11.05;65.43
11339;BME280;5724;42.684;23.252;2022-10-17T07:56:41;95886.22;;;11.23;65.52
11339;BME280;5724;42.684;23.252;2022-10-17T07:59:06;95878.34;;;11.30;65.57
11339;BME280;5724;42.684;23.252;2022-10-17T08:01:32;95872.22;;;11.24;65.46
11339;BME280;5724;42.684;23.252;2022-10-17T08:03:57;95867.78;;;10.94;66.81
11339;BME280;5724;42.684;23.252;2022-10-17T08:06:23;95878.97;;;11.18;65.71
11339;BME280;5724;42.684;23.252;2022-10-17T08:08:48;95874.97;;;11.24;65.55
11339;BME280;5724;42.684;23.252;2022-10-17T08:11:14;95868.97;;;11.39;65.50
11339;BME280;5724;42.684;23.252;2022-10-17T08:13:40;95871.47;;;11.62;64.49
11339;BME280;5724;42.684;23.252;2022-10-17T08:16:08;95870.44;;;11.75;63.20
11339;BME280;5724;42.684;23.252;2022-10-17T08:18:35;95864.63;;;11.85;63.29
11339;BME280;5724;42.684;23.252;2022-10-17T08:21:02;95860.53;;;12.00;62.11
11339;BME280;5724;42.684;23.252;2022-10-17T08:23:30;95865.22;;;11.99;62.20
11339;BME280;5724;42.684;23.252;2022-10-17T08:26:00;95854.91;;;11.96;61.17
11339;BME280;5724;42.684;23.252;2022-10-17T08:28:26;95864.91;;;12.22;61.06
11339;BME280;5724;42.684;23.252;2022-10-17T08:30:51;95855.50;;;12.31;59.81
11339;BME280;5724;42.684;23.252;2022-10-17T08:33:17;95852.03;;;12.43;60.19
11339;BME280;5724;42.684;23.252;2022-10-17T08:35:42;95861.22;;;12.47;60.16
11339;BME280;5724;42.684;23.252;2022-10-17T08:38:08;95851.22;;;12.64;59.72
11339;BME280;5724;42.684;23.252;2022-10-17T08:40:33;95853.19;;;12.84;59.86
11339;BME280;5724;42.684;23.252;2022-10-17T08:46:04;95862.94;;;12.73;58.11
11339;BME280;5724;42.684;23.252;2022-10-17T08:48:35;95858.66;;;12.84;57.90
11339;BME280;5724;42.684;23.252;2022-10-17T08:51:09;95856.81;;;13.09;57.81
11339;BME280;5724;42.684;23.252;2022-10-17T08:56:32;95849.25;;;13.27;56.02
11339;BME280;5724;42.684;23.252;2022-10-17T08:58:58;95861.56;;;13.66;55.06
11339;BME280;5724;42.684;23.252;2022-10-17T09:01:38;95868.84;;;13.50;53.76
11339;BME280;5724;42.684;23.252;2022-10-17T09:12:23;95854.91;;;13.67;52.15
11339;BME280;5724;42.684;23.252;2022-10-17T09:17:56;95862.00;;;13.68;50.15
11339;BME280;5724;42.684;23.252;2022-10-17T09:20:25;95853.13;;;13.83;48.45
11339;BME280;5724;42.684;23.252;2022-10-17T09:25:23;95853.44;;;14.55;47.65
11339;BME280;5724;42.684;23.252;2022-10-17T09:27:51;95858.91;;;14.67;46.84
11339;BME280;5724;42.684;23.252;2022-10-17T09:32:46;95858.84;;;14.92;43.63
11339;BME280;5724;42.684;23.252;2022-10-17T09:35:15;95849.38;;;15.05;43.63
11339;BME280;5724;42.684;23.252;2022-10-17T09:37:41;95836.88;;;15.07;45.82
11339;BME280;5724;42.684;23.252;2022-10-17T09:40:14;95802.78;;;15.12;44.73
11339;BME280;5724;42.684;23.252;2022-10-17T09:42:44;95842.91;;;15.57;42.25
11339;BME280;5724;42.684;23.252;2022-10-17T09:45:17;95837.97;;;15.62;41.95
11339;BME280;5724;42.684;23.252;2022-10-17T09:47:53;95835.22;;;15.78;42.97
11339;BME280;5724;42.684;23.252;2022-10-17T09:50:30;95839.66;;;16.14;41.64
11339;BME280;5724;42.684;23.252;2022-10-17T09:53:00;95832.44;;;16.25;40.58
11339;BME280;5724;42.684;23.252;2022-10-17T09:55:43;95833.75;;;16.31;40.53
11339;BME280;5724;42.684;23.252;2022-10-17T09:58:11;95830.72;;;16.37;39.56
11339;BME280;5724;42.684;23.252;2022-10-17T10:00:40;95823.22;;;16.37;39.56
11339;BME280;5724;42.684;23.252;2022-10-17T10:06:11;95820.97;;;16.23;38.88
11339;BME280;5724;42.684;23.252;2022-10-17T10:11:17;95812.78;;;16.46;36.90
11339;BME280;5724;42.684;23.252;2022-10-17T10:13:45;95812.94;;;16.18;37.75
11339;BME280;5724;42.684;23.252;2022-10-17T10:18:43;95807.00;;;16.16;36.64
11339;BME280;5724;42.684;23.252;2022-10-17T10:21:18;95818.47;;;16.18;37.32
11339;BME280;5724;42.684;23.252;2022-10-17T10:26:46;95812.44;;;16.83;34.52
11339;BME280;5724;42.684;23.252;2022-10-17T10:31:47;95797.44;;;17.23;33.21
11339;BME280;5724;42.684;23.252;2022-10-17T10:34:28;95804.50;;;17.20;33.68
11339;BME280;5724;42.684;23.252;2022-10-17T10:37:21;95799.44;;;17.26;34.59
11339;BME280;5724;42.684;23.252;2022-10-17T10:40:03;95799.59;;;17.56;34.51
11339;BME280;5724;42.684;23.252;2022-10-17T10:42:35;95799.69;;;17.82;33.12
11339;BME280;5724;42.684;23.252;2022-10-17T10:53:44;95786.16;;;17.54;33.87
11339;BME280;5724;42.684;23.252;2022-10-17T10:56:21;95780.16;;;17.49;33.99
11339;BME280;5724;42.684;23.252;2022-10-17T10:59:03;95776.59;;;17.71;34.32
11339;BME280;5724;42.684;23.252;2022-10-17T11:07:01;95758.59;;;17.81;34.07
11339;BME280;5724;42.684;23.252;2022-10-17T11:09:33;95758.72;;;17.88;33.76
11339;BME280;5724;42.684;23.252;2022-10-17T11:15:00;95759.03;;;17.83;34.57
11339;BME280;5724;42.684;23.252;2022-10-17T11:17:42;95768.03;;;18.02;34.32
11339;BME280;5724;42.684;23.252;2022-10-17T11:23:14;95754.00;;;17.88;32.29
11339;BME280;5724;42.684;23.252;2022-10-17T11:25:44;95740.00;;;17.78;32.78
11339;BME280;5724;42.684;23.252;2022-10-17T11:28:15;95746.44;;;17.39;32.60
11339;BME280;5724;42.684;23.252;2022-10-17T11:30:46;95741.09;;;17.50;32.05
11339;BME280;5724;42.684;23.252;2022-10-17T11:33:22;95744.34;;;17.56;31.61
11339;BME280;5724;42.684;23.252;2022-10-17T11:35:50;95747.00;;;17.49;32.61
11339;BME280;5724;42.684;23.252;2022-10-17T11:38:37;95746.19;;;17.71;32.17
11339;BME280;5724;42.684;23.252;2022-10-17T11:41:05;95748.72;;;18.06;32.92
11339;BME280;5724;42.684;23.252;2022-10-17T11:43:58;95743.59;;;17.82;32.84
11339;BME280;5724;42.684;23.252;2022-10-17T11:46:27;95748.47;;;18.15;31.43
11339;BME280;5724;42.684;23.252;2022-10-17T11:49:11;95736.16;;;18.12;32.12
11339;BME280;5724;42.684;23.252;2022-10-17T11:52:07;95742.81;;;18.08;31.79
11339;BME280;5724;42.684;23.252;2022-10-17T11:54:46;95744.16;;;17.91;33.01
11339;BME280;5724;42.684;23.252;2022-10-17T11:57:48;95737.06;;;17.93;33.87
11339;BME280;5724;42.684;23.252;2022-10-17T12:11:05;95735.97;;;17.98;33.63
11339;BME280;5724;42.684;23.252;2022-10-17T12:21:27;95719.63;;;17.89;33.32
11339;BME280;5724;42.684;23.252;2022-10-17T12:23:53;95727.56;;;17.91;32.60
11339;BME280;5724;42.684;23.252;2022-10-17T12:26:27;95713.47;;;17.99;32.38
11339;BME280;5724;42.684;23.252;2022-10-17T12:28:54;95726.22;;;18.08;32.35
11339;BME280;5724;42.684;23.252;2022-10-17T12:31:23;95720.28;;;18.06;33.48
11339;BME280;5724;42.684;23.252;2022-10-17T12:33:58;95714.44;;;18.14;32.17
11339;BME280;5724;42.684;23.252;2022-10-17T12:46:55;95716.13;;;18.49;31.75
11339;BME280;5724;42.684;23.252;2022-10-17T12:52:24;95725.59;;;18.48;31.28
11339;BME280;5724;42.684;23.252;2022-10-17T12:57:51;95717.56;;;18.69;31.22
11339;BME280;5724;42.684;23.252;2022-10-17T13:03:29;95720.56;;;18.57;31.33
11339;BME280;5724;42.684;23.252;2022-10-17T13:06:04;95690.88;;;18.54;31.69
11339;BME280;5724;42.684;23.252;2022-10-17T13:08:33;95710.94;;;18.47;31.84
11339;BME280;5724;42.684;23.252;2022-10-17T13:11:01;95705.41;;;18.47;32.18
11339;BME280;5724;42.684;23.252;2022-10-17T13:13:43;95702.97;;;18.42;32.26
11339;BME280;5724;42.684;23.252;2022-10-17T13:16:33;95695.69;;;18.27;32.41
11339;BME280;5724;42.684;23.252;2022-10-17T13:19:01;95707.19;;;18.63;31.79
11339;BME280;5724;42.684;23.252;2022-10-17T13:21:28;95706.88;;;18.68;31.73
11339;BME280;5724;42.684;23.252;2022-10-17T13:23:54;95704.94;;;18.72;31.41
11339;BME280;5724;42.684;23.252;2022-10-17T13:26:25;95716.09;;;18.79;30.84
11339;BME280;5724;42.684;23.252;2022-10-17T13:31:35;95700.25;;;18.76;32.43
11339;BME280;5724;42.684;23.252;2022-10-17T13:34:05;95709.00;;;18.81;32.43
11339;BME280;5724;42.684;23.252;2022-10-17T13:36:32;95711.06;;;18.88;31.75
11339;BME280;5724;42.684;23.252;2022-10-17T13:38:59;95713.22;;;19.02;31.61
11339;BME280;5724;42.684;23.252;2022-10-17T13:41:30;95713.22;;;19.02;30.76
11339;BME280;5724;42.684;23.252;2022-10-17T13:44:00;95709.09;;;18.88;31.93
11339;BME280;5724;42.684;23.252;2022-10-17T13:46:30;95704.47;;;19.00;31.45
11339;BME280;5724;42.684;23.252;2022-10-17T13:49:18;95699.81;;;19.07;31.76
11339;BME280;5724;42.684;23.252;2022-10-17T13:51:45;95711.28;;;19.09;31.63
11339;BME280;5724;42.684;23.252;2022-10-17T13:56:55;95707.31;;;19.07;31.44
11339;BME280;5724;42.684;23.252;2022-10-17T13:59:27;95713.25;;;19.09;31.65
11339;BME280;5724;42.684;23.252;2022-10-17T14:01:54;95710.06;;;19.03;31.67
11339;BME280;5724;42.684;23.252;2022-10-17T14:04:21;95703.19;;;18.60;32.11
11339;BME280;5724;42.684;23.252;2022-10-17T14:06:47;95713.63;;;18.70;32.11
11339;BME280;5724;42.684;23.252;2022-10-17T14:09:21;95716.78;;;18.69;32.51
11339;BME280;5724;42.684;23.252;2022-10-17T14:11:57;95720.03;;;18.74;32.58
11339;BME280;5724;42.684;23.252;2022-10-17T14:14:24;95712.16;;;18.50;32.43
11339;BME280;5724;42.684;23.252;2022-10-17T14:16:51;95715.94;;;18.65;32.96
11339;BME280;5724;42.684;23.252;2022-10-17T14:19:30;95719.06;;;18.63;32.75
11339;BME280;5724;42.684;23.252;2022-10-17T14:24:46;95721.13;;;18.40;34.55
11339;BME280;5724;42.684;23.252;2022-10-17T14:27:35;95717.97;;;17.85;35.93
11339;BME280;5724;42.684;23.252;2022-10-17T14:30:05;95723.19;;;17.90;35.95
11339;BME280;5724;42.684;23.252;2022-10-17T14:32:36;95722.78;;;17.88;36.39
11339;BME280;5724;42.684;23.252;2022-10-17T14:35:03;95716.28;;;17.77;36.60
11339;BME280;5724;42.684;23.252;2022-10-17T14:37:42;95719.34;;;17.71;36.91
11339;BME280;5724;42.684;23.252;2022-10-17T14:40:18;95724.88;;;17.71;36.76
11339;BME280;5724;42.684;23.252;2022-10-17T14:42:44;95718.47;;;17.67;37.09
11339;BME280;5724;42.684;23.252;2022-10-17T14:45:22;95715.69;;;17.41;37.78
11339;BME280;5724;42.684;23.252;2022-10-17T14:47:50;95726.59;;;17.34;38.28
11339;BME280;5724;42.684;23.252;2022-10-17T14:53:30;95721.94;;;17.38;38.26
11339;BME280;5724;42.684;23.252;2022-10-17T14:55:57;95739.06;;;17.47;38.61
11339;BME280;5724;42.684;23.252;2022-10-17T14:58:25;95736.06;;;17.33;38.49
11339;BME280;5724;42.684;23.252;2022-10-17T15:00:55;95736.09;;;17.13;39.21
11339;BME280;5724;42.684;23.252;2022-10-17T15:03:21;95732.63;;;16.97;39.92
11339;BME280;5724;42.684;23.252;2022-10-17T15:05:48;95738.63;;;16.80;40.54
11339;BME280;5724;42.684;23.252;2022-10-17T15:08:18;95737.84;;;16.79;40.76
11339;BME280;5724;42.684;23.252;2022-10-17T15:10:45;95742.84;;;16.74;40.88
11339;BME280;5724;42.684;23.252;2022-10-17T15:13:12;95737.94;;;16.67;41.10
11339;BME280;5724;42.684;23.252;2022-10-17T15:15:38;95749.88;;;16.52;41.88
11339;BME280;5724;42.684;23.252;2022-10-17T15:18:05;95748.59;;;16.30;41.56
11339;BME280;5724;42.684;23.252;2022-10-17T15:20:32;95750.72;;;16.01;42.93
11339;BME280;5724;42.684;23.252;2022-10-17T15:22:59;95744.25;;;15.94;43.01
11339;BME280;5724;42.684;23.252;2022-10-17T15:25:26;95750.34;;;15.84;42.97
11339;BME280;5724;42.684;23.252;2022-10-17T15:27:52;95751.06;;;15.65;43.37
11339;BME280;5724;42.684;23.252;2022-10-17T15:30:30;95754.94;;;15.48;44.02
11339;BME280;5724;42.684;23.252;2022-10-17T15:32:59;95759.66;;;15.48;44.23